Time;durP1;ratioP1;P1;durP2;ratioP2;P2;SDS_P1;SDS_P2;PMS_P1;PMS_P2;Temp;Humidity;BMP_temperature;BMP_pressure;BME280_temperature;BME280_humidity;BME280_pressure;Samples;Min_cycle;Max_cycle;Signal;HPM_P1;HPM_P2
2021/03/03 00:01:09;;;;;;;25.10;22.80;;;4.40;99.90;;;;;;5047850;28;20646;-92
2021/03/03 00:03:35;;;;;;;25.47;22.77;;;4.50;99.90;;;;;;5042583;28;20627;-92
2021/03/03 00:06:03;;;;;;;24.97;22.57;;;4.60;99.90;;;;;;5047405;28;20654;-92
2021/03/03 00:08:30;;;;;;;25.13;22.70;;;4.70;99.90;;;;;;5036812;28;20627;-92
2021/03/03 00:10:57;;;;;;;25.00;22.47;;;4.70;99.90;;;;;;5056907;28;20728;-91
2021/03/03 00:13:23;;;;;;;24.97;22.77;;;4.60;99.90;;;;;;5053016;28;20692;-92
2021/03/03 00:15:49;;;;;;;24.53;22.10;;;4.40;99.90;;;;;;5043210;28;20708;-92
2021/03/03 00:18:16;;;;;;;24.03;21.40;;;4.30;99.90;;;;;;5049496;28;20635;-90
2021/03/03 00:20:43;;;;;;;26.10;23.40;;;4.30;99.90;;;;;;5064003;28;20653;-91
2021/03/03 00:23:09;;;;;;;25.07;22.00;;;4.30;99.90;;;;;;5056018;28;20628;-92
2021/03/03 00:25:35;;;;;;;21.97;19.97;;;4.30;99.90;;;;;;5063687;28;20660;-91
2021/03/03 00:28:04;;;;;;;23.67;21.37;;;4.20;99.90;;;;;;5061441;28;20654;-91
2021/03/03 00:30:30;;;;;;;23.23;21.20;;;4.30;99.90;;;;;;5023146;28;20646;-90
2021/03/03 00:32:56;;;;;;;23.90;21.50;;;4.20;99.90;;;;;;5032965;28;20634;-91
2021/03/03 00:35:23;;;;;;;24.50;22.10;;;4.10;99.90;;;;;;5055136;28;20622;-91
2021/03/03 00:37:49;;;;;;;24.37;22.00;;;4.10;99.90;;;;;;5058592;28;20683;-92
2021/03/03 00:40:16;;;;;;;23.80;21.53;;;4.00;99.90;;;;;;5054039;28;20653;-93
2021/03/03 00:42:42;;;;;;;22.90;20.70;;;4.10;99.90;;;;;;5061283;28;20626;-92
2021/03/03 00:45:14;;;;;;;22.20;20.17;;;4.10;99.90;;;;;;5036658;28;21195;-92
2021/03/03 00:47:42;;;;;;;23.90;21.43;;;4.00;99.90;;;;;;5053646;28;20642;-92
2021/03/03 00:50:10;;;;;;;23.90;21.17;;;3.90;99.90;;;;;;5038848;28;20741;-93
2021/03/03 00:52:36;;;;;;;24.27;22.00;;;3.90;99.90;;;;;;5052532;28;20609;-91
2021/03/03 00:55:03;;;;;;;24.67;22.17;;;3.90;99.90;;;;;;5058225;28;20634;-91
2021/03/03 00:57:29;;;;;;;26.63;22.90;;;4.00;99.90;;;;;;5046721;28;20635;-93
2021/03/03 00:59:56;;;;;;;23.60;21.40;;;4.10;99.90;;;;;;5037178;28;20669;-92
2021/03/03 01:02:23;;;;;;;23.73;21.43;;;4.10;99.90;;;;;;5045079;28;20629;-90
2021/03/03 01:04:49;;;;;;;23.83;21.60;;;4.00;99.90;;;;;;5072925;28;20601;-91
2021/03/03 01:07:16;;;;;;;23.53;21.33;;;4.10;99.90;;;;;;5052100;28;20661;-92
2021/03/03 01:09:42;;;;;;;23.53;21.30;;;4.10;99.90;;;;;;5059367;28;20653;-92
2021/03/03 01:12:09;;;;;;;24.20;21.70;;;4.10;99.90;;;;;;5053261;28;20644;-91
2021/03/03 01:14:35;;;;;;;23.03;21.03;;;4.00;99.90;;;;;;5056838;28;20659;-92
2021/03/03 01:17:02;;;;;;;22.57;20.47;;;3.90;99.90;;;;;;5061261;28;20623;-91
2021/03/03 01:19:29;;;;;;;24.67;22.57;;;3.80;99.90;;;;;;5047384;28;20646;-91
2021/03/03 01:21:55;;;;;;;25.70;23.23;;;3.80;99.90;;;;;;5054070;28;20630;-91
2021/03/03 01:24:21;;;;;;;23.57;21.33;;;3.80;99.90;;;;;;5040431;28;20638;-91
2021/03/03 01:26:48;;;;;;;25.67;23.07;;;3.90;99.90;;;;;;5054275;28;20671;-91
2021/03/03 01:29:15;;;;;;;25.03;22.47;;;3.90;99.90;;;;;;5030835;28;20630;-91
2021/03/03 01:31:41;;;;;;;23.23;21.07;;;3.80;99.90;;;;;;5057274;28;20633;-90
2021/03/03 01:34:10;;;;;;;24.63;22.33;;;3.70;99.90;;;;;;5061662;28;20637;-91
2021/03/03 01:36:37;;;;;;;24.43;21.93;;;3.70;99.90;;;;;;5056279;28;20621;-92
2021/03/03 01:39:04;;;;;;;24.97;22.43;;;3.60;99.90;;;;;;5057099;28;20978;-92
2021/03/03 01:41:33;;;;;;;22.83;20.60;;;3.70;99.90;;;;;;5060020;28;20659;-91
2021/03/03 01:44:02;;;;;;;23.90;21.70;;;3.70;99.90;;;;;;5056628;28;21276;-91
2021/03/03 01:46:28;;;;;;;25.27;22.60;;;3.70;99.90;;;;;;5043769;28;20658;-90
2021/03/03 01:48:55;;;;;;;24.30;21.90;;;3.60;99.90;;;;;;5048654;28;20975;-92
2021/03/03 01:51:22;;;;;;;25.10;22.70;;;3.60;99.90;;;;;;5047791;28;20692;-92
2021/03/03 01:53:49;;;;;;;25.03;22.77;;;3.60;99.90;;;;;;5046619;28;21228;-92
2021/03/03 01:56:18;;;;;;;25.03;22.67;;;3.60;99.90;;;;;;5056599;28;20626;-92
2021/03/03 01:58:50;;;;;;;24.63;22.37;;;3.70;99.90;;;;;;5058503;28;21378;-91
2021/03/03 02:01:17;;;;;;;25.03;22.37;;;3.70;99.90;;;;;;5056694;28;21063;-92
2021/03/03 02:03:44;;;;;;;23.17;21.07;;;3.60;99.90;;;;;;5058529;28;20679;-92
2021/03/03 02:06:18;;;;;;;23.57;19.90;;;3.60;99.90;;;;;;5052703;28;20654;-92
2021/03/03 02:08:47;;;;;;;24.93;22.53;;;3.50;99.90;;;;;;5039586;28;21113;-92
2021/03/03 02:11:20;;;;;;;22.57;20.40;;;3.50;99.90;;;;;;5040866;28;20646;-92
2021/03/03 02:13:50;;;;;;;25.00;22.50;;;3.60;99.90;;;;;;5045489;28;20634;-91
2021/03/03 02:16:19;;;;;;;23.60;21.20;;;3.60;99.90;;;;;;5056792;28;20622;-91
2021/03/03 02:18:48;;;;;;;25.57;22.97;;;3.60;99.90;;;;;;5047282;28;20630;-92
2021/03/03 02:21:19;;;;;;;24.87;22.47;;;3.60;99.90;;;;;;5055721;28;21211;-91
2021/03/03 02:23:51;;;;;;;24.40;21.90;;;3.50;99.90;;;;;;5065358;28;20616;-92
2021/03/03 02:26:22;;;;;;;25.60;22.13;;;3.60;99.90;;;;;;5070934;28;20666;-90
2021/03/03 02:28:50;;;;;;;24.00;21.60;;;3.60;99.90;;;;;;5063146;28;21268;-92
2021/03/03 02:31:18;;;;;;;24.03;21.73;;;3.50;99.90;;;;;;5049759;28;20641;-92
2021/03/03 02:33:46;;;;;;;23.60;21.23;;;3.50;99.90;;;;;;5052989;28;20632;-92
2021/03/03 02:36:13;;;;;;;22.73;20.57;;;3.50;99.90;;;;;;5045299;28;20641;-92
2021/03/03 02:38:41;;;;;;;21.17;19.27;;;3.40;99.90;;;;;;5046068;28;20696;-91
2021/03/03 02:41:09;;;;;;;22.87;20.73;;;3.40;99.90;;;;;;5033086;28;20653;-91
2021/03/03 02:43:37;;;;;;;23.77;21.47;;;3.40;99.90;;;;;;5053202;28;20605;-90
2021/03/03 02:46:05;;;;;;;24.03;21.73;;;3.40;99.90;;;;;;5069302;28;20673;-92
2021/03/03 02:48:32;;;;;;;23.43;20.73;;;3.40;99.90;;;;;;5055903;28;21027;-92
2021/03/03 02:50:58;;;;;;;21.03;18.93;;;3.40;99.90;;;;;;5047638;28;20677;-91
2021/03/03 02:53:25;;;;;;;24.37;21.43;;;3.50;99.90;;;;;;5054628;28;20621;-92
2021/03/03 02:55:52;;;;;;;21.37;19.13;;;3.60;99.90;;;;;;5057993;28;20621;-90
2021/03/03 02:58:21;;;;;;;21.97;19.87;;;3.50;99.90;;;;;;5043441;28;21097;-91
2021/03/03 03:00:51;;;;;;;25.33;21.63;;;3.50;99.90;;;;;;5054818;28;20654;-91
2021/03/03 03:03:23;;;;;;;24.43;21.73;;;3.40;99.90;;;;;;5048111;28;20702;-91
2021/03/03 03:05:59;;;;;;;22.23;20.33;;;3.40;99.90;;;;;;5045441;28;20716;-90
2021/03/03 03:08:29;;;;;;;23.50;21.33;;;3.40;99.90;;;;;;5048856;28;21219;-92
2021/03/03 03:11:00;;;;;;;23.10;21.00;;;3.40;99.90;;;;;;5037485;28;21209;-91
2021/03/03 03:13:30;;;;;;;22.63;20.60;;;3.40;99.90;;;;;;5039262;28;20621;-90
2021/03/03 03:15:59;;;;;;;24.77;20.27;;;3.40;99.90;;;;;;5055390;28;20671;-93
2021/03/03 03:18:29;;;;;;;22.33;20.13;;;3.40;99.90;;;;;;5030625;28;20631;-91
2021/03/03 03:20:57;;;;;;;22.93;20.73;;;3.40;99.90;;;;;;5051677;28;20658;-92
2021/03/03 03:23:23;;;;;;;24.10;21.90;;;3.40;99.90;;;;;;5039650;28;20647;-91
2021/03/03 03:25:52;;;;;;;23.77;19.20;;;3.50;99.90;;;;;;5044747;28;20745;-91
2021/03/03 03:28:19;;;;;;;23.53;21.33;;;3.50;99.90;;;;;;5048355;28;20993;-92
2021/03/03 03:30:45;;;;;;;27.00;21.30;;;3.50;99.90;;;;;;5052047;28;20644;-92
2021/03/03 03:33:13;;;;;;;23.77;21.60;;;3.50;99.90;;;;;;5046583;28;20637;-92
2021/03/03 03:35:41;;;;;;;21.07;18.90;;;3.40;99.90;;;;;;5044727;28;20632;-91
2021/03/03 03:38:07;;;;;;;23.00;20.90;;;3.40;99.90;;;;;;5047242;28;21262;-93
2021/03/03 03:40:34;;;;;;;21.53;19.63;;;3.40;99.90;;;;;;5021707;28;20691;-92
2021/03/03 03:43:16;;;;;;;23.63;21.23;;;3.40;99.90;;;;;;5030491;28;20989;-90
2021/03/03 03:45:43;;;;;;;23.90;21.43;;;3.40;99.90;;;;;;5056105;28;20662;-90
2021/03/03 03:48:14;;;;;;;23.73;21.53;;;3.30;99.90;;;;;;5056850;28;20971;-91
2021/03/03 03:50:40;;;;;;;23.47;21.07;;;3.30;99.90;;;;;;5059698;28;20653;-90
2021/03/03 03:53:09;;;;;;;24.23;20.37;;;3.30;99.90;;;;;;5051578;28;20633;-91
2021/03/03 03:55:37;;;;;;;23.23;21.00;;;3.30;99.90;;;;;;5058056;28;20635;-91
2021/03/03 03:58:04;;;;;;;21.93;20.03;;;3.30;99.90;;;;;;5041983;28;20641;-91
2021/03/03 04:00:39;;;;;;;22.83;20.87;;;3.20;99.90;;;;;;5059711;28;21053;-93
2021/03/03 04:03:06;;;;;;;22.53;20.50;;;3.20;99.90;;;;;;5058604;28;20625;-95
2021/03/03 04:05:35;;;;;;;21.83;19.60;;;3.10;99.90;;;;;;5054251;28;20654;-91
2021/03/03 04:08:01;;;;;;;23.50;21.50;;;3.20;99.90;;;;;;5021361;28;20625;-92
2021/03/03 04:10:29;;;;;;;24.00;21.60;;;3.30;99.90;;;;;;5059372;28;20663;-91
2021/03/03 04:12:56;;;;;;;25.57;23.17;;;3.30;99.90;;;;;;5065054;28;21178;-93
2021/03/03 04:15:23;;;;;;;23.30;21.10;;;3.30;99.90;;;;;;5053477;28;20645;-90
2021/03/03 04:17:51;;;;;;;24.20;21.57;;;3.30;99.90;;;;;;5063771;28;20625;-90
2021/03/03 04:20:18;;;;;;;23.53;21.23;;;3.30;99.90;;;;;;5060810;28;20658;-92
2021/03/03 04:22:47;;;;;;;24.00;21.80;;;3.30;99.90;;;;;;5057833;28;20630;-91
2021/03/03 04:25:16;;;;;;;23.47;20.93;;;3.20;99.90;;;;;;5042937;28;20634;-90
2021/03/03 04:27:44;;;;;;;24.23;22.03;;;3.10;99.90;;;;;;5044631;28;20677;-90
2021/03/03 04:30:14;;;;;;;25.13;22.60;;;3.10;99.90;;;;;;5060680;28;20673;-91
2021/03/03 04:32:40;;;;;;;23.80;21.43;;;3.10;99.90;;;;;;5053235;28;20641;-91
2021/03/03 04:35:08;;;;;;;23.03;20.83;;;3.10;99.90;;;;;;5056972;28;21527;-92
2021/03/03 04:37:34;;;;;;;22.37;20.37;;;3.10;99.90;;;;;;5057486;28;20655;-92
2021/03/03 04:40:02;;;;;;;23.87;21.47;;;3.00;99.90;;;;;;5049791;28;20651;-92
2021/03/03 04:42:28;;;;;;;23.27;20.87;;;3.00;99.90;;;;;;5039862;28;20636;-90
2021/03/03 04:45:02;;;;;;;22.30;20.33;;;3.00;99.90;;;;;;5059504;28;20948;-91
2021/03/03 04:47:29;;;;;;;22.43;20.43;;;2.90;99.90;;;;;;5052904;28;20673;-91
2021/03/03 04:49:55;;;;;;;25.20;22.70;;;3.00;99.90;;;;;;5052777;28;20649;-91
2021/03/03 04:52:21;;;;;;;23.60;21.20;;;3.00;99.90;;;;;;5060113;28;20637;-90
2021/03/03 04:54:49;;;;;;;25.17;22.77;;;2.90;99.90;;;;;;5066660;28;20629;-93
2021/03/03 04:57:18;;;;;;;23.73;21.43;;;2.90;99.90;;;;;;5050874;28;20611;-92
2021/03/03 04:59:45;;;;;;;25.20;22.60;;;2.90;99.90;;;;;;5043502;28;20732;-90
2021/03/03 05:02:11;;;;;;;26.33;23.60;;;2.90;99.90;;;;;;5058120;28;20620;-91
2021/03/03 05:04:38;;;;;;;24.70;21.00;;;3.00;99.90;;;;;;5049655;28;20733;-91
2021/03/03 05:07:04;;;;;;;27.57;25.03;;;3.00;99.90;;;;;;5054425;28;20666;-90
2021/03/03 05:09:30;;;;;;;26.07;23.47;;;2.90;99.90;;;;;;5061835;28;20653;-92
2021/03/03 05:11:59;;;;;;;23.70;21.60;;;3.00;99.90;;;;;;5054658;28;20675;-91
2021/03/03 05:14:26;;;;;;;24.30;22.23;;;3.00;99.90;;;;;;5053360;28;20675;-92
2021/03/03 05:16:53;;;;;;;25.17;22.30;;;3.00;99.90;;;;;;5052790;28;20625;-91
2021/03/03 05:19:19;;;;;;;23.33;21.10;;;3.00;99.90;;;;;;5056962;28;20637;-91
2021/03/03 05:21:45;;;;;;;25.70;23.10;;;3.00;99.90;;;;;;5048934;28;21547;-91
2021/03/03 05:24:12;;;;;;;25.37;20.63;;;3.00;99.90;;;;;;5035123;28;20625;-92
2021/03/03 05:26:39;;;;;;;26.37;22.63;;;3.00;99.90;;;;;;5051708;28;20651;-91
2021/03/03 05:29:06;;;;;;;23.47;20.80;;;3.00;99.90;;;;;;5057624;28;20644;-91
2021/03/03 05:31:33;;;;;;;31.53;21.27;;;3.00;99.90;;;;;;5058315;28;21183;-93
2021/03/03 05:33:59;;;;;;;28.80;22.73;;;3.00;99.90;;;;;;5040078;28;20644;-91
2021/03/03 05:36:26;;;;;;;25.17;21.47;;;3.00;99.90;;;;;;5053021;28;20626;-90
2021/03/03 05:38:52;;;;;;;25.30;22.27;;;3.10;99.90;;;;;;5059793;28;20706;-90
2021/03/03 05:41:22;;;;;;;25.90;21.77;;;3.10;99.90;;;;;;5060583;28;20649;-91
2021/03/03 05:43:48;;;;;;;25.37;22.70;;;3.10;99.90;;;;;;5050505;28;20626;-92
2021/03/03 05:46:21;;;;;;;24.80;22.30;;;3.10;99.90;;;;;;5054110;28;20673;-91
2021/03/03 05:48:51;;;;;;;24.97;21.37;;;3.10;99.90;;;;;;5044453;28;20630;-92
2021/03/03 05:51:18;;;;;;;24.50;22.00;;;3.10;99.90;;;;;;5055356;28;20658;-91
2021/03/03 05:53:45;;;;;;;25.67;22.87;;;3.00;99.90;;;;;;5053867;28;20636;-92
2021/03/03 05:56:12;;;;;;;24.90;22.67;;;3.10;99.90;;;;;;5034853;28;20690;-91
2021/03/03 05:58:39;;;;;;;23.63;21.43;;;3.00;99.90;;;;;;5043008;28;20625;-92
2021/03/03 06:01:08;;;;;;;25.50;23.03;;;3.00;99.90;;;;;;5054397;28;20730;-92
2021/03/03 06:03:35;;;;;;;25.50;22.97;;;2.90;99.90;;;;;;5038067;28;20632;-93
2021/03/03 06:06:03;;;;;;;26.00;23.50;;;3.00;99.90;;;;;;5059118;28;20654;-92
2021/03/03 06:08:31;;;;;;;27.30;24.60;;;3.00;99.90;;;;;;5052431;28;20667;-94
2021/03/03 06:10:59;;;;;;;26.73;24.33;;;3.00;99.90;;;;;;5050560;28;21538;-93
2021/03/03 06:13:25;;;;;;;26.90;24.17;;;3.00;99.90;;;;;;5072984;28;20701;-91
2021/03/03 06:15:54;;;;;;;25.40;22.97;;;3.00;99.90;;;;;;5050913;28;21346;-93
2021/03/03 06:18:25;;;;;;;27.20;24.73;;;3.10;99.90;;;;;;5053390;28;20614;-94
2021/03/03 06:20:55;;;;;;;27.47;25.03;;;3.20;99.90;;;;;;5053053;28;20682;-94
2021/03/03 06:23:26;;;;;;;26.57;23.97;;;3.20;99.90;;;;;;5051517;28;21069;-94
2021/03/03 06:26:11;;;;;;;28.40;25.80;;;3.00;99.90;;;;;;5052675;28;20730;-94
2021/03/03 06:28:44;;;;;;;29.80;22.80;;;3.00;99.90;;;;;;5061309;28;20687;-94
2021/03/03 06:31:32;;;;;;;26.77;24.17;;;3.10;99.90;;;;;;5057497;28;20625;-93
2021/03/03 06:34:11;;;;;;;27.23;24.20;;;3.10;99.90;;;;;;5072176;28;20625;-93
2021/03/03 06:36:59;;;;;;;27.30;22.90;;;3.10;99.90;;;;;;5061055;28;20661;-94
2021/03/03 06:39:30;;;;;;;26.63;24.20;;;3.30;99.90;;;;;;5052041;28;21173;-96
2021/03/03 06:42:00;;;;;;;25.97;23.47;;;3.40;99.90;;;;;;5038237;28;20709;-94
2021/03/03 06:44:46;;;;;;;24.97;22.00;;;3.40;99.90;;;;;;5044594;28;20607;-93
2021/03/03 06:47:15;;;;;;;26.77;24.27;;;3.40;99.90;;;;;;5052079;28;20712;-94
2021/03/03 06:49:42;;;;;;;24.40;21.67;;;3.50;99.90;;;;;;5052124;28;20618;-95
2021/03/03 06:52:10;;;;;;;26.63;23.70;;;3.60;99.90;;;;;;5058667;28;20679;-94
2021/03/03 06:54:37;;;;;;;25.27;22.97;;;3.70;99.90;;;;;;5035043;28;20644;-92
2021/03/03 06:57:05;;;;;;;24.10;21.70;;;3.70;99.90;;;;;;5051497;28;21390;-92
2021/03/03 06:59:43;;;;;;;29.20;23.60;;;3.70;99.90;;;;;;5044239;28;20688;-95
2021/03/03 07:02:12;;;;;;;26.50;23.93;;;3.80;99.90;;;;;;5068920;28;20634;-93
2021/03/03 07:04:41;;;;;;;24.40;22.30;;;3.90;99.90;;;;;;5072275;28;20601;-93
2021/03/03 07:07:12;;;;;;;25.93;23.20;;;3.90;99.90;;;;;;5067649;28;20736;-92
2021/03/03 07:09:58;;;;;;;26.27;23.63;;;4.00;99.90;;;;;;5058656;28;20649;-94
2021/03/03 07:12:30;;;;;;;25.17;22.67;;;4.10;99.90;;;;;;5044866;28;20706;-94
2021/03/03 07:14:59;;;;;;;25.33;22.87;;;4.20;99.90;;;;;;5059800;28;20659;-92
2021/03/03 07:17:31;;;;;;;26.80;24.10;;;4.20;99.90;;;;;;5050827;28;20657;-93
2021/03/03 07:20:01;;;;;;;23.57;21.03;;;4.20;99.90;;;;;;5055529;28;20606;-93
2021/03/03 07:22:34;;;;;;;26.73;23.40;;;4.30;99.90;;;;;;5067932;28;20620;-92
2021/03/03 07:25:11;;;;;;;25.60;22.73;;;4.40;99.90;;;;;;5057614;28;20626;-93
2021/03/03 07:27:40;;;;;;;28.83;24.13;;;4.30;99.90;;;;;;5065896;28;20823;-92
2021/03/03 07:30:12;;;;;;;27.43;24.83;;;4.40;99.90;;;;;;5043568;28;20699;-92
2021/03/03 07:32:39;;;;;;;25.83;23.33;;;4.50;99.90;;;;;;5070743;28;20725;-92
2021/03/03 07:35:07;;;;;;;26.67;24.00;;;4.70;99.90;;;;;;5065296;28;20606;-92
2021/03/03 07:37:36;;;;;;;26.70;24.00;;;4.60;99.90;;;;;;5073903;28;20667;-93
2021/03/03 07:40:12;;;;;;;28.43;25.57;;;4.60;99.90;;;;;;5053569;28;20967;-94
2021/03/03 07:42:39;;;;;;;26.83;24.23;;;4.60;99.90;;;;;;5057525;28;20731;-93
2021/03/03 07:45:09;;;;;;;31.93;23.37;;;4.60;99.90;;;;;;5056725;28;21156;-94
2021/03/03 07:47:39;;;;;;;28.97;26.13;;;4.70;99.90;;;;;;5053542;28;20689;-93
2021/03/03 07:50:11;;;;;;;27.77;24.77;;;4.80;99.90;;;;;;5052855;28;20671;-93
2021/03/03 07:52:40;;;;;;;27.10;24.20;;;4.70;99.90;;;;;;5056268;28;20633;-92
2021/03/03 07:55:17;;;;;;;28.47;23.77;;;4.70;99.90;;;;;;5059927;28;21480;-92
2021/03/03 07:57:48;;;;;;;26.57;24.07;;;4.80;99.90;;;;;;5056329;28;20650;-92
2021/03/03 08:00:20;;;;;;;27.13;24.30;;;4.70;99.90;;;;;;5061323;28;20623;-92
2021/03/03 08:02:50;;;;;;;27.00;24.20;;;4.80;99.90;;;;;;5062549;28;21475;-95
2021/03/03 08:05:27;;;;;;;27.80;24.77;;;4.90;99.90;;;;;;5062561;28;20645;-92
2021/03/03 08:08:17;;;;;;;28.53;25.63;;;5.00;99.90;;;;;;5064935;28;20680;-92
2021/03/03 08:10:50;;;;;;;26.70;23.60;;;5.20;99.90;;;;;;5060868;28;20962;-91
2021/03/03 08:13:31;;;;;;;27.03;24.57;;;5.30;99.90;;;;;;5067811;28;20749;-91
2021/03/03 08:16:01;;;;;;;25.97;23.57;;;5.40;99.90;;;;;;5063702;28;20630;-93
2021/03/03 08:18:29;;;;;;;24.63;22.20;;;5.40;99.90;;;;;;5058710;28;20636;-91
2021/03/03 08:20:58;;;;;;;26.80;24.20;;;5.40;99.90;;;;;;5063517;28;20633;-94
2021/03/03 08:23:44;;;;;;;28.60;25.63;;;5.40;99.90;;;;;;5053352;28;20650;-94
2021/03/03 08:26:38;;;;;;;31.03;28.10;;;5.60;99.90;;;;;;5050127;28;21232;-94
2021/03/03 08:29:27;;;;;;;41.37;37.40;;;5.70;99.90;;;;;;5047891;28;20582;-92
2021/03/03 08:31:54;;;;;;;39.50;35.90;;;5.70;99.90;;;;;;5059306;28;20637;-93
2021/03/03 08:34:24;;;;;;;39.33;35.47;;;5.70;99.90;;;;;;5046053;28;20627;-93
2021/03/03 08:37:03;;;;;;;38.13;34.43;;;5.70;99.90;;;;;;5043567;28;20707;-92
2021/03/03 08:39:36;;;;;;;36.70;33.50;;;5.70;99.90;;;;;;5046538;28;20643;-92
2021/03/03 08:42:29;;;;;;;39.43;35.60;;;5.70;99.90;;;;;;5049314;28;20726;-92
2021/03/03 08:45:02;;;;;;;38.53;34.90;;;5.70;99.90;;;;;;5056508;28;20655;-92
2021/03/03 08:47:53;;;;;;;34.73;31.37;;;5.80;99.90;;;;;;5046936;28;20682;-93
2021/03/03 08:50:41;;;;;;;32.90;29.40;;;5.80;99.90;;;;;;5055884;28;20737;-93
2021/03/03 08:53:26;;;;;;;32.77;29.57;;;6.00;99.90;;;;;;5055381;28;20662;-93
2021/03/03 08:55:53;;;;;;;29.73;26.80;;;6.10;99.90;;;;;;5055983;28;20641;-92
2021/03/03 08:59:00;;;;;;;30.23;27.00;;;6.30;99.90;;;;;;5054716;28;20731;-93
2021/03/03 09:02:00;;;;;;;31.13;28.07;;;6.40;99.90;;;;;;5057015;28;20660;-93
2021/03/03 09:04:29;;;;;;;30.30;27.23;;;6.50;99.90;;;;;;5059443;28;20679;-93
2021/03/03 09:06:58;;;;;;;27.47;24.73;;;6.50;99.90;;;;;;5058635;28;20711;-92
2021/03/03 09:09:26;;;;;;;27.33;24.30;;;6.50;99.90;;;;;;5053315;28;20638;-94
2021/03/03 09:12:00;;;;;;;28.37;23.40;;;6.70;99.90;;;;;;5053607;28;20713;-93
2021/03/03 09:14:27;;;;;;;28.07;23.30;;;6.70;99.90;;;;;;5054515;28;20629;-93
2021/03/03 09:16:56;;;;;;;29.23;24.27;;;6.70;99.90;;;;;;5044193;28;20623;-93
2021/03/03 09:19:24;;;;;;;26.07;22.30;;;6.90;99.90;;;;;;5051672;28;20814;-92
2021/03/03 09:21:52;;;;;;;27.33;21.43;;;7.00;99.90;;;;;;5054957;28;20716;-93
2021/03/03 09:24:19;;;;;;;25.60;22.20;;;7.00;99.90;;;;;;5048953;28;21056;-92
2021/03/03 09:26:46;;;;;;;22.67;20.47;;;7.10;99.90;;;;;;5056044;28;20653;-92
2021/03/03 09:29:33;;;;;;;23.20;20.60;;;7.10;99.90;;;;;;5055470;28;20640;-93
2021/03/03 09:32:05;;;;;;;20.70;18.53;;;7.20;99.90;;;;;;5051420;28;20756;-93
2021/03/03 09:34:35;;;;;;;24.73;20.57;;;7.30;99.90;;;;;;5057291;28;20609;-94
2021/03/03 09:37:03;;;;;;;22.87;20.07;;;7.40;99.90;;;;;;5047932;28;20637;-93
2021/03/03 09:39:30;;;;;;;21.53;19.33;;;7.50;99.90;;;;;;5055373;28;20626;-93
2021/03/03 09:42:08;;;;;;;24.73;19.70;;;7.50;99.90;;;;;;5054805;28;20726;-94
2021/03/03 09:44:46;;;;;;;21.60;19.53;;;7.60;99.90;;;;;;5053863;28;20635;-94
2021/03/03 09:47:21;;;;;;;22.17;19.80;;;7.80;99.90;;;;;;5046988;28;20678;-94
2021/03/03 09:49:49;;;;;;;22.90;20.33;;;7.80;99.90;;;;;;5061690;28;20657;-93
2021/03/03 09:52:15;;;;;;;21.97;19.87;;;7.90;99.90;;;;;;5049674;28;20727;-94
2021/03/03 09:54:42;;;;;;;22.57;18.83;;;8.00;99.90;;;;;;5051991;28;20634;-93
2021/03/03 09:57:11;;;;;;;23.20;20.20;;;8.00;99.90;;;;;;5051514;28;20630;-93
2021/03/03 09:59:42;;;;;;;21.23;18.50;;;8.10;99.90;;;;;;5053089;28;20641;-93
2021/03/03 10:02:11;;;;;;;23.33;19.63;;;8.20;99.90;;;;;;5061166;28;20647;-93
2021/03/03 10:04:45;;;;;;;22.90;18.60;;;8.30;99.90;;;;;;5062419;28;20629;-92
2021/03/03 10:07:21;;;;;;;24.63;18.67;;;8.40;99.90;;;;;;5059118;28;20657;-94
2021/03/03 10:09:49;;;;;;;23.67;20.27;;;8.50;99.90;;;;;;5051401;28;20654;-92
2021/03/03 10:12:18;;;;;;;19.87;17.77;;;8.60;99.90;;;;;;5078230;28;20609;-92
2021/03/03 10:15:02;;;;;;;21.10;19.10;;;8.60;99.90;;;;;;5063020;28;21251;-96
2021/03/03 10:17:38;;;;;;;23.73;18.93;;;8.70;99.90;;;;;;5062157;28;20625;-92
2021/03/03 10:20:08;;;;;;;22.37;18.13;;;8.80;99.90;;;;;;5049283;28;20667;-94
2021/03/03 10:22:43;;;;;;;21.17;17.93;;;9.00;99.90;;;;;;5071607;28;20644;-94
2021/03/03 10:25:13;;;;;;;22.80;18.50;;;9.10;99.80;;;;;;5067485;28;20602;-92
2021/03/03 10:27:41;;;;;;;23.10;18.83;;;9.10;99.80;;;;;;5063456;28;20713;-93
2021/03/03 10:30:25;;;;;;;22.63;18.53;;;9.10;99.90;;;;;;5057238;28;20676;-95
2021/03/03 10:32:53;;;;;;;22.97;17.57;;;9.40;99.20;;;;;;5060157;28;20637;-93
2021/03/03 10:35:22;;;;;;;28.03;18.13;;;9.30;99.10;;;;;;5053089;28;20646;-93
2021/03/03 10:37:50;;;;;;;19.83;17.80;;;9.50;99.10;;;;;;5065383;28;20638;-92
2021/03/03 10:40:19;;;;;;;20.03;17.63;;;9.60;98.50;;;;;;5070793;28;20657;-94
2021/03/03 10:42:46;;;;;;;25.20;18.83;;;9.70;98.40;;;;;;5065852;28;20649;-95
2021/03/03 10:45:21;;;;;;;24.57;18.60;;;9.70;98.80;;;;;;5061812;28;20633;-95
2021/03/03 10:47:50;;;;;;;19.50;17.30;;;9.80;98.40;;;;;;5054264;28;21235;-94
2021/03/03 10:50:18;;;;;;;27.00;18.83;;;10.00;97.20;;;;;;5051090;28;20680;-95
2021/03/03 10:52:57;;;;;;;20.07;17.27;;;10.20;97.00;;;;;;5060986;28;20625;-94
2021/03/03 10:55:32;;;;;;;19.50;17.60;;;10.40;97.00;;;;;;5054511;28;20961;-94
2021/03/03 10:58:10;;;;;;;21.43;18.10;;;10.50;96.90;;;;;;5055831;28;21235;-94
2021/03/03 11:01:06;;;;;;;26.07;18.77;;;10.40;96.90;;;;;;5051780;28;20766;-94
2021/03/03 11:03:57;;;;;;;20.33;16.90;;;10.60;96.80;;;;;;5049912;28;20643;-95
2021/03/03 11:09:19;;;;;;;20.87;17.00;;;11.00;96.10;;;;;;5064578;28;20598;-93
2021/03/03 11:11:52;;;;;;;20.70;17.27;;;11.20;95.40;;;;;;5051305;28;20627;-92
2021/03/03 11:14:22;;;;;;;27.03;18.40;;;11.30;94.80;;;;;;5046525;28;20663;-94
2021/03/03 11:16:49;;;;;;;19.10;17.20;;;11.50;94.70;;;;;;5054696;28;21233;-96
2021/03/03 11:19:17;;;;;;;18.87;16.93;;;11.40;94.80;;;;;;5037550;28;20623;-93
2021/03/03 11:21:45;;;;;;;19.93;17.97;;;11.50;94.70;;;;;;5053732;28;21077;-94
2021/03/03 11:24:12;;;;;;;18.60;16.20;;;11.60;94.00;;;;;;5064538;28;20692;-95
2021/03/03 11:26:47;;;;;;;22.07;18.40;;;11.70;93.80;;;;;;5037277;28;21298;-94
2021/03/03 11:29:15;;;;;;;22.60;16.47;;;11.70;93.70;;;;;;5056469;28;20673;-94
2021/03/03 11:31:43;;;;;;;19.47;17.47;;;11.70;93.70;;;;;;5056028;28;20661;-93
2021/03/03 11:34:13;;;;;;;22.53;17.63;;;11.80;93.60;;;;;;5054847;28;20717;-93
2021/03/03 11:36:41;;;;;;;19.13;17.13;;;11.70;93.70;;;;;;5052347;28;20692;-94
2021/03/03 11:39:14;;;;;;;20.67;17.67;;;11.80;93.50;;;;;;5052627;28;20618;-95
2021/03/03 11:41:43;;;;;;;17.90;14.13;;;11.90;93.70;;;;;;5053845;28;21325;-94
2021/03/03 11:44:12;;;;;;;19.53;14.70;;;12.10;93.00;;;;;;5068607;28;20598;-94
2021/03/03 11:46:38;;;;;;;23.40;17.60;;;12.10;92.90;;;;;;5059923;28;20683;-95
2021/03/03 11:49:05;;;;;;;23.50;15.77;;;12.20;93.00;;;;;;5071322;28;20731;-95
2021/03/03 11:51:31;;;;;;;18.23;16.33;;;12.40;92.40;;;;;;5063020;28;20649;-94
2021/03/03 12:02:23;;;;;;;22.07;16.37;;;12.80;91.60;;;;;;5076868;28;20731;-95
2021/03/03 12:04:51;;;;;;;18.80;16.80;;;12.80;92.50;;;;;;5062952;28;20627;-94
2021/03/03 12:07:21;;;;;;;22.50;17.53;;;13.00;91.60;;;;;;5069914;28;20660;-94
2021/03/03 12:09:48;;;;;;;24.30;17.40;;;13.00;91.10;;;;;;5070352;28;20637;-94
2021/03/03 12:12:15;;;;;;;17.73;15.93;;;13.00;90.70;;;;;;5069555;28;20622;-94
2021/03/03 12:14:43;;;;;;;22.17;18.87;;;13.10;90.70;;;;;;5076886;28;20637;-94
2021/03/03 12:17:10;;;;;;;22.83;18.60;;;13.30;90.80;;;;;;5055984;28;20631;-93
2021/03/03 12:19:37;;;;;;;21.87;19.57;;;13.20;90.60;;;;;;5059041;28;20629;-94
2021/03/03 12:22:12;;;;;;;18.03;16.23;;;13.40;90.30;;;;;;5040887;28;21021;-94
2021/03/03 12:24:43;;;;;;;22.63;20.07;;;13.50;90.00;;;;;;5063275;28;20617;-96
2021/03/03 12:30:21;;;;;;;18.70;16.60;;;13.30;90.00;;;;;;5064675;28;20711;-94
2021/03/03 12:32:50;;;;;;;20.30;17.63;;;13.30;90.00;;;;;;5055524;28;20652;-95
2021/03/03 12:35:17;;;;;;;21.27;18.67;;;13.30;89.40;;;;;;5060345;28;20665;-95
2021/03/03 12:37:44;;;;;;;22.53;17.00;;;13.50;89.30;;;;;;5066785;28;20615;-94
2021/03/03 12:40:12;;;;;;;19.50;17.00;;;13.40;89.30;;;;;;5062597;28;21242;-93
2021/03/03 12:42:39;;;;;;;25.27;18.00;;;13.40;89.10;;;;;;5047460;28;20632;-94
2021/03/03 12:48:30;;;;;;;24.30;20.30;;;13.70;88.20;;;;;;5066520;28;20729;-94
2021/03/03 12:50:58;;;;;;;30.70;19.60;;;13.70;88.20;;;;;;5074372;28;20644;-95
2021/03/03 12:53:29;;;;;;;27.50;22.07;;;13.70;88.00;;;;;;5063532;28;20622;-93
2021/03/03 12:58:41;;;;;;;19.47;17.53;;;13.90;87.70;;;;;;5066171;28;21108;-93
2021/03/03 13:01:15;;;;;;;21.37;19.10;;;13.90;87.40;;;;;;5072391;28;20709;-94
2021/03/03 13:03:44;;;;;;;21.53;17.60;;;13.90;88.00;;;;;;5034810;28;20710;-94
2021/03/03 13:06:14;;;;;;;19.97;16.87;;;14.00;86.80;;;;;;5066694;28;20641;-93
2021/03/03 13:08:41;;;;;;;24.30;18.40;;;14.20;86.60;;;;;;5062014;28;20948;-94
2021/03/03 13:11:09;;;;;;;21.53;18.20;;;14.20;86.80;;;;;;5059736;28;20733;-92